首页
METAR-TAF:

METAR-TAF

机场 :

阿卡普尔科, 墨西哥

纬度: 16-46N, 经度: 099-45W, 海拔: 5米

当前天气观测

该预报发布于29分钟前的17:48 UTC
风速7节,风向西转西南
温度 30°C
湿度 66%
气压 1013 hPa
能見度: 11.3公里
散云层高于30000英尺

METAR: MMAA 151748Z 25007KT 7SM SCT300 30/23 A2991 RMK SLP116 52006 969 8/002 HZY CU E

时间: 13:17 (18:17 UTC)

预报

该预报发布于1小时和42分钟前的16:35 UTC
预报有效从15日的 18点(UTC)到 16日的 24点(UTC)
风速10节,风向南转西南
能見度: 10公里
散云层高于3000英尺
散云层高于23000英尺
从 16日的 0000点(UTC)
风速10节,风向西南
能見度: 10公里
散云层高于2000英尺, 积雨云.
多云层高于23000英尺
短暂存在
从 16日的 04点(UTC)到 16日的 08点(UTC)
能見度: 9.7公里
多云层高于2000英尺, 积雨云.
雷暴, 雨
从 16日的 1000点(UTC)
风速节,风向
能見度: 10公里
散云层高于1500英尺
散云层高于9000英尺
从 16日的 1700点(UTC)
风速10节,风向西转西南
能見度: 10公里
散云层高于3000英尺
散云层高于25000英尺

TAF: MMAA 151635Z 1518/1624 20010KT P6SM SCT030 SCT230 TX32/1521Z TN24/1612Z FM160000 23010KT P6SM SCT020CB BKN230 TEMPO 1604/1608 6SM TSRA BKN020CB FM161000 00000KT P6SM SCT015 SCT090 FM161700 24010KT P6SM SCT030 SCT250

超过4000个机场的气象观测和天气预报(METAR&TAF报告)。

可查询的气象台以黄色和红色小点在地图上表示。

将鼠标移到小点上方,可查看气象台名称。

然后点击查看天气观测和预报。

如需切换地图:点击带黑十字的绿色按钮放大地图;点击带横线的绿色按钮缩小地图;或者点击绿色箭头查看邻近地区的地图。


METAR-TAF: